Terminal Aerodrome Forecast
Issued by NWS

Home | Current Version | Previous Version | Text Only | Print | Product List | Glossary On
Versions: 1 2 3 4 5 6 7 8 9 10 11 12
765
FTPA31 PHFO 081735
TAFHJH
TAF
PHJH 081735Z 0818/0918 VRB05KT P6SM FEW015 SCT025 BKN050
     FM081900 VRB05KT P6SM -SHRA SCT015 BKN035 BKN050
     FM091200 VRB05KT P6SM VCSH SCT015 BKN050
      AMD NOT SKED AFT 090400=

USA.gov is the U.S. government's official web portal to all federal, state and local government web resources and services.